sensor_id;sensor_type;location;lat;lon;timestamp;P1;durP1;ratioP1;P2;durP2;ratioP2
7493;SDS011;3788;49.902;8.590;2023-01-15T00:01:34;3.53;;;1.93;;
7493;SDS011;3788;49.902;8.590;2023-01-15T00:04:02;2.67;;;2.03;;
7493;SDS011;3788;49.902;8.590;2023-01-15T00:06:31;1.90;;;1.60;;
7493;SDS011;3788;49.902;8.590;2023-01-15T00:09:02;2.80;;;1.50;;
7493;SDS011;3788;49.902;8.590;2023-01-15T00:11:29;4.63;;;2.00;;
7493;SDS011;3788;49.902;8.590;2023-01-15T00:13:56;4.53;;;1.53;;
7493;SDS011;3788;49.902;8.590;2023-01-15T00:16:23;2.83;;;1.80;;
7493;SDS011;3788;49.902;8.590;2023-01-15T00:18:53;3.77;;;1.90;;
7493;SDS011;3788;49.902;8.590;2023-01-15T00:21:21;2.30;;;1.57;;
7493;SDS011;3788;49.902;8.590;2023-01-15T00:23:49;3.53;;;2.07;;
7493;SDS011;3788;49.902;8.590;2023-01-15T00:26:33;3.80;;;1.90;;
7493;SDS011;3788;49.902;8.590;2023-01-15T00:29:19;2.60;;;1.73;;
7493;SDS011;3788;49.902;8.590;2023-01-15T00:31:50;2.40;;;1.87;;
7493;SDS011;3788;49.902;8.590;2023-01-15T00:34:21;3.23;;;2.07;;
7493;SDS011;3788;49.902;8.590;2023-01-15T00:36:48;2.23;;;2.00;;
7493;SDS011;3788;49.902;8.590;2023-01-15T00:39:15;1.83;;;1.37;;
7493;SDS011;3788;49.902;8.590;2023-01-15T00:41:41;1.40;;;1.30;;
7493;SDS011;3788;49.902;8.590;2023-01-15T00:44:08;1.40;;;1.30;;
7493;SDS011;3788;49.902;8.590;2023-01-15T00:46:35;1.73;;;1.20;;
7493;SDS011;3788;49.902;8.590;2023-01-15T00:49:02;3.17;;;1.50;;
7493;SDS011;3788;49.902;8.590;2023-01-15T00:51:30;1.67;;;1.43;;
7493;SDS011;3788;49.902;8.590;2023-01-15T00:53:57;1.50;;;1.40;;
7493;SDS011;3788;49.902;8.590;2023-01-15T00:56:24;1.37;;;1.20;;
7493;SDS011;3788;49.902;8.590;2023-01-15T00:58:51;2.13;;;1.50;;
7493;SDS011;3788;49.902;8.590;2023-01-15T01:01:18;1.60;;;1.50;;
7493;SDS011;3788;49.902;8.590;2023-01-15T01:03:45;0.83;;;0.80;;
7493;SDS011;3788;49.902;8.590;2023-01-15T01:06:13;1.03;;;0.90;;
7493;SDS011;3788;49.902;8.590;2023-01-15T01:08:42;1.10;;;1.00;;
7493;SDS011;3788;49.902;8.590;2023-01-15T01:11:10;1.10;;;1.00;;
7493;SDS011;3788;49.902;8.590;2023-01-15T01:13:38;1.73;;;1.03;;
7493;SDS011;3788;49.902;8.590;2023-01-15T01:16:15;1.63;;;1.10;;
7493;SDS011;3788;49.902;8.590;2023-01-15T01:18:47;1.30;;;1.20;;
7493;SDS011;3788;49.902;8.590;2023-01-15T01:21:14;1.30;;;1.20;;
7493;SDS011;3788;49.902;8.590;2023-01-15T01:23:42;2.10;;;1.40;;
7493;SDS011;3788;49.902;8.590;2023-01-15T01:26:08;1.60;;;1.50;;
7493;SDS011;3788;49.902;8.590;2023-01-15T01:28:35;1.53;;;1.20;;
7493;SDS011;3788;49.902;8.590;2023-01-15T01:31:03;2.37;;;1.23;;
7493;SDS011;3788;49.902;8.590;2023-01-15T01:33:30;1.50;;;1.40;;
7493;SDS011;3788;49.902;8.590;2023-01-15T01:35:57;2.43;;;1.30;;
7493;SDS011;3788;49.902;8.590;2023-01-15T01:38:23;1.70;;;1.50;;
7493;SDS011;3788;49.902;8.590;2023-01-15T01:40:51;1.27;;;1.17;;
7493;SDS011;3788;49.902;8.590;2023-01-15T01:43:19;1.20;;;1.10;;
7493;SDS011;3788;49.902;8.590;2023-01-15T01:45:47;1.00;;;1.00;;
7493;SDS011;3788;49.902;8.590;2023-01-15T01:48:14;0.90;;;0.90;;
7493;SDS011;3788;49.902;8.590;2023-01-15T01:50:45;0.80;;;0.80;;
7493;SDS011;3788;49.902;8.590;2023-01-15T01:53:15;0.70;;;0.70;;
7493;SDS011;3788;49.902;8.590;2023-01-15T01:55:44;0.70;;;0.63;;
7493;SDS011;3788;49.902;8.590;2023-01-15T01:58:13;0.77;;;0.77;;
7493;SDS011;3788;49.902;8.590;2023-01-15T02:00:40;0.73;;;0.73;;
7493;SDS011;3788;49.902;8.590;2023-01-15T02:03:11;0.87;;;0.87;;
7493;SDS011;3788;49.902;8.590;2023-01-15T02:05:39;0.60;;;0.60;;
7493;SDS011;3788;49.902;8.590;2023-01-15T02:08:12;0.60;;;0.60;;
7493;SDS011;3788;49.902;8.590;2023-01-15T02:10:39;0.70;;;0.70;;
7493;SDS011;3788;49.902;8.590;2023-01-15T02:13:07;1.33;;;0.77;;
7493;SDS011;3788;49.902;8.590;2023-01-15T02:15:42;0.70;;;0.70;;
7493;SDS011;3788;49.902;8.590;2023-01-15T02:18:12;0.67;;;0.67;;
7493;SDS011;3788;49.902;8.590;2023-01-15T02:20:44;1.07;;;0.93;;
7493;SDS011;3788;49.902;8.590;2023-01-15T02:23:32;0.80;;;0.70;;
7493;SDS011;3788;49.902;8.590;2023-01-15T02:26:25;1.10;;;0.53;;
7493;SDS011;3788;49.902;8.590;2023-01-15T02:29:09;0.50;;;0.50;;
7493;SDS011;3788;49.902;8.590;2023-01-15T02:31:40;0.60;;;0.60;;
7493;SDS011;3788;49.902;8.590;2023-01-15T02:34:12;0.50;;;0.50;;
7493;SDS011;3788;49.902;8.590;2023-01-15T02:36:43;1.30;;;0.50;;
7493;SDS011;3788;49.902;8.590;2023-01-15T02:39:14;0.53;;;0.53;;
7493;SDS011;3788;49.902;8.590;2023-01-15T02:41:44;0.53;;;0.53;;
7493;SDS011;3788;49.902;8.590;2023-01-15T02:44:16;0.53;;;0.53;;
7493;SDS011;3788;49.902;8.590;2023-01-15T02:46:45;0.40;;;0.40;;
7493;SDS011;3788;49.902;8.590;2023-01-15T02:49:13;0.57;;;0.57;;
7493;SDS011;3788;49.902;8.590;2023-01-15T02:51:43;0.87;;;0.50;;
7493;SDS011;3788;49.902;8.590;2023-01-15T02:54:14;0.50;;;0.50;;
7493;SDS011;3788;49.902;8.590;2023-01-15T02:56:44;0.40;;;0.40;;
7493;SDS011;3788;49.902;8.590;2023-01-15T02:59:16;0.63;;;0.63;;
7493;SDS011;3788;49.902;8.590;2023-01-15T03:01:45;0.70;;;0.70;;
7493;SDS011;3788;49.902;8.590;2023-01-15T03:04:16;0.80;;;0.80;;
7493;SDS011;3788;49.902;8.590;2023-01-15T03:06:47;0.53;;;0.53;;
7493;SDS011;3788;49.902;8.590;2023-01-15T03:09:18;1.27;;;0.80;;
7493;SDS011;3788;49.902;8.590;2023-01-15T03:11:48;0.60;;;0.60;;
7493;SDS011;3788;49.902;8.590;2023-01-15T03:14:25;0.70;;;0.50;;
7493;SDS011;3788;49.902;8.590;2023-01-15T03:17:02;0.50;;;0.50;;
7493;SDS011;3788;49.902;8.590;2023-01-15T03:19:35;0.40;;;0.40;;
7493;SDS011;3788;49.902;8.590;2023-01-15T03:22:07;0.60;;;0.60;;
7493;SDS011;3788;49.902;8.590;2023-01-15T03:24:38;0.40;;;0.40;;
7493;SDS011;3788;49.902;8.590;2023-01-15T03:27:10;0.70;;;0.60;;
7493;SDS011;3788;49.902;8.590;2023-01-15T03:29:37;0.50;;;0.50;;
7493;SDS011;3788;49.902;8.590;2023-01-15T03:32:08;0.40;;;0.40;;
7493;SDS011;3788;49.902;8.590;2023-01-15T03:34:35;0.43;;;0.40;;
7493;SDS011;3788;49.902;8.590;2023-01-15T03:37:06;0.50;;;0.50;;
7493;SDS011;3788;49.902;8.590;2023-01-15T03:39:34;0.40;;;0.40;;
7493;SDS011;3788;49.902;8.590;2023-01-15T03:42:04;0.50;;;0.50;;
7493;SDS011;3788;49.902;8.590;2023-01-15T03:44:44;0.40;;;0.40;;
7493;SDS011;3788;49.902;8.590;2023-01-15T03:47:20;0.30;;;0.30;;
7493;SDS011;3788;49.902;8.590;2023-01-15T03:49:58;0.47;;;0.47;;
7493;SDS011;3788;49.902;8.590;2023-01-15T03:52:32;0.40;;;0.40;;
7493;SDS011;3788;49.902;8.590;2023-01-15T03:55:09;0.40;;;0.40;;
7493;SDS011;3788;49.902;8.590;2023-01-15T03:57:41;0.40;;;0.40;;
7493;SDS011;3788;49.902;8.590;2023-01-15T04:00:15;0.40;;;0.40;;
7493;SDS011;3788;49.902;8.590;2023-01-15T04:02:46;0.40;;;0.40;;
7493;SDS011;3788;49.902;8.590;2023-01-15T04:05:14;0.50;;;0.50;;
7493;SDS011;3788;49.902;8.590;2023-01-15T04:07:42;0.60;;;0.40;;
7493;SDS011;3788;49.902;8.590;2023-01-15T04:10:11;0.67;;;0.40;;
7493;SDS011;3788;49.902;8.590;2023-01-15T04:12:37;0.40;;;0.40;;
7493;SDS011;3788;49.902;8.590;2023-01-15T04:15:06;0.93;;;0.50;;
7493;SDS011;3788;49.902;8.590;2023-01-15T04:17:33;0.40;;;0.40;;
7493;SDS011;3788;49.902;8.590;2023-01-15T04:20:00;2.10;;;0.40;;
7493;SDS011;3788;49.902;8.590;2023-01-15T04:22:27;0.40;;;0.40;;
7493;SDS011;3788;49.902;8.590;2023-01-15T04:24:54;0.50;;;0.50;;
7493;SDS011;3788;49.902;8.590;2023-01-15T04:27:21;0.47;;;0.47;;
7493;SDS011;3788;49.902;8.590;2023-01-15T04:29:48;0.50;;;0.50;;
7493;SDS011;3788;49.902;8.590;2023-01-15T04:32:16;0.40;;;0.40;;
7493;SDS011;3788;49.902;8.590;2023-01-15T04:34:43;0.40;;;0.40;;
7493;SDS011;3788;49.902;8.590;2023-01-15T04:37:09;0.50;;;0.50;;
7493;SDS011;3788;49.902;8.590;2023-01-15T04:39:36;0.50;;;0.50;;
7493;SDS011;3788;49.902;8.590;2023-01-15T04:42:03;0.50;;;0.50;;
7493;SDS011;3788;49.902;8.590;2023-01-15T04:44:47;0.50;;;0.50;;
7493;SDS011;3788;49.902;8.590;2023-01-15T04:47:14;0.40;;;0.40;;
7493;SDS011;3788;49.902;8.590;2023-01-15T04:49:42;0.50;;;0.50;;
7493;SDS011;3788;49.902;8.590;2023-01-15T04:52:08;0.40;;;0.40;;
7493;SDS011;3788;49.902;8.590;2023-01-15T04:54:35;0.50;;;0.50;;
7493;SDS011;3788;49.902;8.590;2023-01-15T04:57:03;0.50;;;0.50;;
7493;SDS011;3788;49.902;8.590;2023-01-15T04:59:29;0.97;;;0.97;;
7493;SDS011;3788;49.902;8.590;2023-01-15T05:01:56;0.50;;;0.50;;
7493;SDS011;3788;49.902;8.590;2023-01-15T05:04:23;0.50;;;0.50;;
7493;SDS011;3788;49.902;8.590;2023-01-15T05:06:51;0.40;;;0.40;;
7493;SDS011;3788;49.902;8.590;2023-01-15T05:09:18;0.50;;;0.50;;
7493;SDS011;3788;49.902;8.590;2023-01-15T05:11:44;0.50;;;0.50;;
7493;SDS011;3788;49.902;8.590;2023-01-15T05:14:11;0.50;;;0.50;;
7493;SDS011;3788;49.902;8.590;2023-01-15T05:16:38;0.50;;;0.50;;
7493;SDS011;3788;49.902;8.590;2023-01-15T05:19:04;0.53;;;0.53;;
7493;SDS011;3788;49.902;8.590;2023-01-15T05:21:33;0.40;;;0.40;;
7493;SDS011;3788;49.902;8.590;2023-01-15T05:24:02;0.57;;;0.57;;
7493;SDS011;3788;49.902;8.590;2023-01-15T05:26:31;0.50;;;0.50;;
7493;SDS011;3788;49.902;8.590;2023-01-15T05:28:58;0.57;;;0.50;;
7493;SDS011;3788;49.902;8.590;2023-01-15T05:31:26;0.50;;;0.50;;
7493;SDS011;3788;49.902;8.590;2023-01-15T05:33:53;0.60;;;0.60;;
7493;SDS011;3788;49.902;8.590;2023-01-15T05:36:21;0.50;;;0.50;;
7493;SDS011;3788;49.902;8.590;2023-01-15T05:38:49;0.50;;;0.50;;
7493;SDS011;3788;49.902;8.590;2023-01-15T05:41:18;0.40;;;0.40;;
7493;SDS011;3788;49.902;8.590;2023-01-15T05:44:04;0.50;;;0.50;;
7493;SDS011;3788;49.902;8.590;2023-01-15T05:46:32;0.50;;;0.50;;
7493;SDS011;3788;49.902;8.590;2023-01-15T05:49:00;0.50;;;0.50;;
7493;SDS011;3788;49.902;8.590;2023-01-15T05:51:28;0.93;;;0.70;;
7493;SDS011;3788;49.902;8.590;2023-01-15T05:53:55;0.50;;;0.50;;
7493;SDS011;3788;49.902;8.590;2023-01-15T05:56:23;0.50;;;0.50;;
7493;SDS011;3788;49.902;8.590;2023-01-15T05:58:50;0.40;;;0.40;;
7493;SDS011;3788;49.902;8.590;2023-01-15T06:01:17;0.57;;;0.57;;
7493;SDS011;3788;49.902;8.590;2023-01-15T06:03:44;0.57;;;0.50;;
7493;SDS011;3788;49.902;8.590;2023-01-15T06:06:13;0.60;;;0.60;;
7493;SDS011;3788;49.902;8.590;2023-01-15T06:08:40;0.50;;;0.50;;
7493;SDS011;3788;49.902;8.590;2023-01-15T06:11:07;0.63;;;0.63;;
7493;SDS011;3788;49.902;8.590;2023-01-15T06:13:36;0.50;;;0.50;;
7493;SDS011;3788;49.902;8.590;2023-01-15T06:16:04;0.50;;;0.50;;
7493;SDS011;3788;49.902;8.590;2023-01-15T06:18:31;0.50;;;0.50;;
7493;SDS011;3788;49.902;8.590;2023-01-15T06:21:01;0.50;;;0.50;;
7493;SDS011;3788;49.902;8.590;2023-01-15T06:23:28;0.60;;;0.60;;
7493;SDS011;3788;49.902;8.590;2023-01-15T06:25:58;0.50;;;0.50;;
7493;SDS011;3788;49.902;8.590;2023-01-15T06:28:25;0.60;;;0.60;;
7493;SDS011;3788;49.902;8.590;2023-01-15T06:30:53;0.50;;;0.50;;
7493;SDS011;3788;49.902;8.590;2023-01-15T06:33:20;0.87;;;0.73;;
7493;SDS011;3788;49.902;8.590;2023-01-15T06:35:47;0.90;;;0.90;;
7493;SDS011;3788;49.902;8.590;2023-01-15T06:38:13;0.70;;;0.70;;
7493;SDS011;3788;49.902;8.590;2023-01-15T06:40:40;0.70;;;0.70;;
7493;SDS011;3788;49.902;8.590;2023-01-15T06:43:07;0.70;;;0.70;;
7493;SDS011;3788;49.902;8.590;2023-01-15T06:45:53;0.70;;;0.70;;
7493;SDS011;3788;49.902;8.590;2023-01-15T06:48:37;0.50;;;0.50;;
7493;SDS011;3788;49.902;8.590;2023-01-15T06:51:04;0.50;;;0.50;;
7493;SDS011;3788;49.902;8.590;2023-01-15T06:53:31;1.20;;;0.90;;
7493;SDS011;3788;49.902;8.590;2023-01-15T06:55:57;1.83;;;1.10;;
7493;SDS011;3788;49.902;8.590;2023-01-15T06:58:26;1.10;;;1.07;;
7493;SDS011;3788;49.902;8.590;2023-01-15T07:00:54;1.13;;;0.90;;
7493;SDS011;3788;49.902;8.590;2023-01-15T07:03:21;0.83;;;0.83;;
7493;SDS011;3788;49.902;8.590;2023-01-15T07:05:47;0.70;;;0.70;;
7493;SDS011;3788;49.902;8.590;2023-01-15T07:08:14;0.50;;;0.50;;
7493;SDS011;3788;49.902;8.590;2023-01-15T07:10:41;0.60;;;0.60;;
7493;SDS011;3788;49.902;8.590;2023-01-15T07:13:08;1.23;;;0.80;;
7493;SDS011;3788;49.902;8.590;2023-01-15T07:15:36;0.60;;;0.60;;
7493;SDS011;3788;49.902;8.590;2023-01-15T07:18:04;0.60;;;0.60;;
7493;SDS011;3788;49.902;8.590;2023-01-15T07:20:31;0.50;;;0.50;;
7493;SDS011;3788;49.902;8.590;2023-01-15T07:22:58;0.50;;;0.50;;
7493;SDS011;3788;49.902;8.590;2023-01-15T07:25:24;0.70;;;0.70;;
7493;SDS011;3788;49.902;8.590;2023-01-15T07:27:51;0.90;;;0.77;;
7493;SDS011;3788;49.902;8.590;2023-01-15T07:30:18;1.00;;;1.00;;
7493;SDS011;3788;49.902;8.590;2023-01-15T07:32:44;1.73;;;0.80;;
7493;SDS011;3788;49.902;8.590;2023-01-15T07:35:12;1.70;;;0.70;;
7493;SDS011;3788;49.902;8.590;2023-01-15T07:37:39;0.80;;;0.63;;
7493;SDS011;3788;49.902;8.590;2023-01-15T07:40:08;0.50;;;0.50;;
7493;SDS011;3788;49.902;8.590;2023-01-15T07:42:36;1.57;;;0.67;;
7493;SDS011;3788;49.902;8.590;2023-01-15T07:45:20;0.43;;;0.43;;
7493;SDS011;3788;49.902;8.590;2023-01-15T07:48:06;0.50;;;0.50;;
7493;SDS011;3788;49.902;8.590;2023-01-15T07:50:52;0.60;;;0.60;;
7493;SDS011;3788;49.902;8.590;2023-01-15T07:53:19;0.53;;;0.47;;
7493;SDS011;3788;49.902;8.590;2023-01-15T07:55:46;0.43;;;0.43;;
7493;SDS011;3788;49.902;8.590;2023-01-15T07:58:13;0.60;;;0.60;;
7493;SDS011;3788;49.902;8.590;2023-01-15T08:00:40;0.70;;;0.60;;
7493;SDS011;3788;49.902;8.590;2023-01-15T08:03:06;1.20;;;0.50;;
7493;SDS011;3788;49.902;8.590;2023-01-15T08:05:33;0.67;;;0.67;;
7493;SDS011;3788;49.902;8.590;2023-01-15T08:08:01;0.70;;;0.70;;
7493;SDS011;3788;49.902;8.590;2023-01-15T08:10:37;0.93;;;0.73;;
7493;SDS011;3788;49.902;8.590;2023-01-15T08:13:24;0.60;;;0.60;;
7493;SDS011;3788;49.902;8.590;2023-01-15T08:16:08;0.50;;;0.50;;
7493;SDS011;3788;49.902;8.590;2023-01-15T08:18:36;0.60;;;0.60;;
7493;SDS011;3788;49.902;8.590;2023-01-15T08:21:02;0.50;;;0.50;;
7493;SDS011;3788;49.902;8.590;2023-01-15T08:23:31;0.57;;;0.57;;
7493;SDS011;3788;49.902;8.590;2023-01-15T08:25:58;0.70;;;0.70;;
7493;SDS011;3788;49.902;8.590;2023-01-15T08:28:25;0.60;;;0.60;;
7493;SDS011;3788;49.902;8.590;2023-01-15T08:30:52;0.70;;;0.70;;
7493;SDS011;3788;49.902;8.590;2023-01-15T08:33:19;0.60;;;0.60;;
7493;SDS011;3788;49.902;8.590;2023-01-15T08:35:45;0.77;;;0.77;;
7493;SDS011;3788;49.902;8.590;2023-01-15T08:38:12;0.50;;;0.50;;
7493;SDS011;3788;49.902;8.590;2023-01-15T08:40:40;0.70;;;0.70;;
7493;SDS011;3788;49.902;8.590;2023-01-15T08:43:21;0.60;;;0.60;;
7493;SDS011;3788;49.902;8.590;2023-01-15T08:45:47;0.60;;;0.60;;
7493;SDS011;3788;49.902;8.590;2023-01-15T08:48:14;0.60;;;0.60;;
7493;SDS011;3788;49.902;8.590;2023-01-15T08:50:41;0.50;;;0.50;;
7493;SDS011;3788;49.902;8.590;2023-01-15T08:53:08;0.50;;;0.50;;
7493;SDS011;3788;49.902;8.590;2023-01-15T08:55:37;0.50;;;0.50;;
7493;SDS011;3788;49.902;8.590;2023-01-15T08:58:06;0.50;;;0.50;;
7493;SDS011;3788;49.902;8.590;2023-01-15T09:00:32;0.77;;;0.77;;
7493;SDS011;3788;49.902;8.590;2023-01-15T09:02:59;0.60;;;0.60;;
7493;SDS011;3788;49.902;8.590;2023-01-15T09:05:26;0.50;;;0.50;;
7493;SDS011;3788;49.902;8.590;2023-01-15T09:07:53;0.60;;;0.60;;
7493;SDS011;3788;49.902;8.590;2023-01-15T09:10:19;0.70;;;0.70;;
7493;SDS011;3788;49.902;8.590;2023-01-15T09:12:54;0.40;;;0.40;;
7493;SDS011;3788;49.902;8.590;2023-01-15T09:15:25;0.50;;;0.50;;
7493;SDS011;3788;49.902;8.590;2023-01-15T09:17:52;0.50;;;0.50;;
7493;SDS011;3788;49.902;8.590;2023-01-15T09:20:18;0.70;;;0.70;;
7493;SDS011;3788;49.902;8.590;2023-01-15T09:22:45;0.70;;;0.70;;
7493;SDS011;3788;49.902;8.590;2023-01-15T09:25:13;1.27;;;0.87;;
7493;SDS011;3788;49.902;8.590;2023-01-15T09:27:40;0.77;;;0.70;;
7493;SDS011;3788;49.902;8.590;2023-01-15T09:30:08;1.43;;;0.80;;
7493;SDS011;3788;49.902;8.590;2023-01-15T09:32:40;0.77;;;0.77;;
7493;SDS011;3788;49.902;8.590;2023-01-15T09:35:07;0.80;;;0.80;;
7493;SDS011;3788;49.902;8.590;2023-01-15T09:37:34;1.13;;;1.00;;
7493;SDS011;3788;49.902;8.590;2023-01-15T09:40:10;2.03;;;1.37;;
7493;SDS011;3788;49.902;8.590;2023-01-15T09:42:55;1.30;;;1.20;;
7493;SDS011;3788;49.902;8.590;2023-01-15T09:45:28;1.17;;;1.07;;
7493;SDS011;3788;49.902;8.590;2023-01-15T09:48:06;2.63;;;1.37;;
7493;SDS011;3788;49.902;8.590;2023-01-15T09:50:47;1.80;;;1.20;;
7493;SDS011;3788;49.902;8.590;2023-01-15T09:56:30;0.70;;;0.70;;
7493;SDS011;3788;49.902;8.590;2023-01-15T09:59:03;0.70;;;0.70;;
7493;SDS011;3788;49.902;8.590;2023-01-15T10:01:39;0.70;;;0.70;;
7493;SDS011;3788;49.902;8.590;2023-01-15T10:04:11;0.70;;;0.70;;
7493;SDS011;3788;49.902;8.590;2023-01-15T10:06:42;1.10;;;0.60;;
7493;SDS011;3788;49.902;8.590;2023-01-15T10:09:16;0.60;;;0.60;;
7493;SDS011;3788;49.902;8.590;2023-01-15T10:11:49;0.60;;;0.60;;
7493;SDS011;3788;49.902;8.590;2023-01-15T10:14:41;0.60;;;0.60;;
7493;SDS011;3788;49.902;8.590;2023-01-15T10:17:21;0.50;;;0.50;;
7493;SDS011;3788;49.902;8.590;2023-01-15T10:19:53;0.50;;;0.50;;
7493;SDS011;3788;49.902;8.590;2023-01-15T10:22:27;0.50;;;0.50;;
7493;SDS011;3788;49.902;8.590;2023-01-15T10:25:00;1.07;;;0.60;;
7493;SDS011;3788;49.902;8.590;2023-01-15T10:27:30;0.50;;;0.50;;
7493;SDS011;3788;49.902;8.590;2023-01-15T10:29:59;0.60;;;0.60;;
7493;SDS011;3788;49.902;8.590;2023-01-15T10:32:31;0.77;;;0.77;;
7493;SDS011;3788;49.902;8.590;2023-01-15T10:35:25;0.50;;;0.50;;
7493;SDS011;3788;49.902;8.590;2023-01-15T10:37:57;0.50;;;0.50;;
7493;SDS011;3788;49.902;8.590;2023-01-15T10:40:33;3.80;;;0.60;;
7493;SDS011;3788;49.902;8.590;2023-01-15T10:43:09;0.50;;;0.50;;
7493;SDS011;3788;49.902;8.590;2023-01-15T10:45:45;0.63;;;0.63;;
7493;SDS011;3788;49.902;8.590;2023-01-15T10:48:16;0.87;;;0.63;;
7493;SDS011;3788;49.902;8.590;2023-01-15T10:50:50;1.03;;;0.80;;
7493;SDS011;3788;49.902;8.590;2023-01-15T10:53:19;0.60;;;0.60;;
7493;SDS011;3788;49.902;8.590;2023-01-15T10:55:56;0.50;;;0.50;;
7493;SDS011;3788;49.902;8.590;2023-01-15T10:58:27;1.43;;;0.80;;
7493;SDS011;3788;49.902;8.590;2023-01-15T11:01:00;1.60;;;0.70;;
7493;SDS011;3788;49.902;8.590;2023-01-15T11:03:31;1.07;;;0.70;;
7493;SDS011;3788;49.902;8.590;2023-01-15T11:06:03;1.20;;;0.60;;
7493;SDS011;3788;49.902;8.590;2023-01-15T11:08:32;0.60;;;0.60;;
7493;SDS011;3788;49.902;8.590;2023-01-15T11:11:03;1.60;;;0.70;;
7493;SDS011;3788;49.902;8.590;2023-01-15T11:13:50;0.77;;;0.60;;
7493;SDS011;3788;49.902;8.590;2023-01-15T11:16:35;0.60;;;0.60;;
7493;SDS011;3788;49.902;8.590;2023-01-15T11:19:23;0.70;;;0.70;;
7493;SDS011;3788;49.902;8.590;2023-01-15T11:22:05;0.50;;;0.50;;
7493;SDS011;3788;49.902;8.590;2023-01-15T11:24:35;1.47;;;0.73;;
7493;SDS011;3788;49.902;8.590;2023-01-15T11:27:04;0.70;;;0.70;;
7493;SDS011;3788;49.902;8.590;2023-01-15T11:29:32;0.60;;;0.60;;
7493;SDS011;3788;49.902;8.590;2023-01-15T11:32:01;0.60;;;0.50;;
7493;SDS011;3788;49.902;8.590;2023-01-15T11:34:29;0.90;;;0.60;;
7493;SDS011;3788;49.902;8.590;2023-01-15T11:37:02;1.70;;;0.70;;
7493;SDS011;3788;49.902;8.590;2023-01-15T11:39:30;0.67;;;0.67;;
7493;SDS011;3788;49.902;8.590;2023-01-15T11:41:58;0.70;;;0.70;;
7493;SDS011;3788;49.902;8.590;2023-01-15T11:44:50;1.07;;;0.70;;
7493;SDS011;3788;49.902;8.590;2023-01-15T11:47:35;0.60;;;0.60;;
7493;SDS011;3788;49.902;8.590;2023-01-15T11:50:20;0.93;;;0.83;;
7493;SDS011;3788;49.902;8.590;2023-01-15T11:53:05;2.80;;;1.10;;
7493;SDS011;3788;49.902;8.590;2023-01-15T11:55:39;1.77;;;0.90;;
7493;SDS011;3788;49.902;8.590;2023-01-15T11:58:16;0.80;;;0.60;;
7493;SDS011;3788;49.902;8.590;2023-01-15T12:00:42;0.60;;;0.60;;
7493;SDS011;3788;49.902;8.590;2023-01-15T12:03:16;0.60;;;0.60;;
7493;SDS011;3788;49.902;8.590;2023-01-15T12:05:46;0.40;;;0.40;;
7493;SDS011;3788;49.902;8.590;2023-01-15T12:08:19;1.63;;;0.80;;
7493;SDS011;3788;49.902;8.590;2023-01-15T12:10:58;0.60;;;0.60;;
7493;SDS011;3788;49.902;8.590;2023-01-15T12:13:39;1.33;;;0.90;;
7493;SDS011;3788;49.902;8.590;2023-01-15T12:16:12;1.07;;;0.80;;
7493;SDS011;3788;49.902;8.590;2023-01-15T12:18:49;0.70;;;0.70;;
7493;SDS011;3788;49.902;8.590;2023-01-15T12:21:23;0.63;;;0.63;;
7493;SDS011;3788;49.902;8.590;2023-01-15T12:24:07;2.33;;;1.07;;
7493;SDS011;3788;49.902;8.590;2023-01-15T12:26:59;1.63;;;1.20;;
7493;SDS011;3788;49.902;8.590;2023-01-15T12:29:45;1.00;;;0.90;;
7493;SDS011;3788;49.902;8.590;2023-01-15T12:32:18;2.87;;;1.50;;
7493;SDS011;3788;49.902;8.590;2023-01-15T12:34:50;2.00;;;1.00;;
7493;SDS011;3788;49.902;8.590;2023-01-15T12:37:20;1.23;;;1.07;;
7493;SDS011;3788;49.902;8.590;2023-01-15T12:39:51;1.57;;;0.80;;
7493;SDS011;3788;49.902;8.590;2023-01-15T12:42:25;1.07;;;0.80;;
7493;SDS011;3788;49.902;8.590;2023-01-15T12:45:14;0.60;;;0.60;;
7493;SDS011;3788;49.902;8.590;2023-01-15T12:47:44;1.77;;;1.03;;
7493;SDS011;3788;49.902;8.590;2023-01-15T12:50:21;1.77;;;0.80;;
7493;SDS011;3788;49.902;8.590;2023-01-15T12:52:56;1.47;;;0.77;;
7493;SDS011;3788;49.902;8.590;2023-01-15T12:55:28;1.03;;;1.00;;
7493;SDS011;3788;49.902;8.590;2023-01-15T12:58:00;1.37;;;0.87;;
7493;SDS011;3788;49.902;8.590;2023-01-15T13:00:29;1.20;;;1.10;;
7493;SDS011;3788;49.902;8.590;2023-01-15T13:03:04;2.80;;;1.50;;
7493;SDS011;3788;49.902;8.590;2023-01-15T13:05:47;2.40;;;1.00;;
7493;SDS011;3788;49.902;8.590;2023-01-15T13:08:18;1.40;;;1.10;;
7493;SDS011;3788;49.902;8.590;2023-01-15T13:10:49;1.70;;;1.30;;
7493;SDS011;3788;49.902;8.590;2023-01-15T13:13:19;1.80;;;1.30;;
7493;SDS011;3788;49.902;8.590;2023-01-15T13:15:52;1.00;;;0.90;;
7493;SDS011;3788;49.902;8.590;2023-01-15T13:18:26;3.03;;;1.67;;
7493;SDS011;3788;49.902;8.590;2023-01-15T13:21:03;0.70;;;0.70;;
7493;SDS011;3788;49.902;8.590;2023-01-15T13:23:51;1.50;;;1.17;;
7493;SDS011;3788;49.902;8.590;2023-01-15T13:26:43;0.80;;;0.80;;
7493;SDS011;3788;49.902;8.590;2023-01-15T13:29:21;1.23;;;0.93;;
7493;SDS011;3788;49.902;8.590;2023-01-15T13:32:02;1.80;;;0.97;;
7493;SDS011;3788;49.902;8.590;2023-01-15T13:34:36;0.77;;;0.70;;
7493;SDS011;3788;49.902;8.590;2023-01-15T13:37:11;1.47;;;0.80;;
7493;SDS011;3788;49.902;8.590;2023-01-15T13:39:43;1.60;;;1.00;;
7493;SDS011;3788;49.902;8.590;2023-01-15T13:42:15;1.10;;;1.00;;
7493;SDS011;3788;49.902;8.590;2023-01-15T13:44:58;2.03;;;1.10;;
7493;SDS011;3788;49.902;8.590;2023-01-15T13:47:32;0.90;;;0.90;;
7493;SDS011;3788;49.902;8.590;2023-01-15T13:50:03;1.40;;;1.00;;
7493;SDS011;3788;49.902;8.590;2023-01-15T13:52:38;2.73;;;1.30;;
7493;SDS011;3788;49.902;8.590;2023-01-15T13:55:09;1.13;;;0.87;;
7493;SDS011;3788;49.902;8.590;2023-01-15T13:57:38;2.27;;;0.97;;
7493;SDS011;3788;49.902;8.590;2023-01-15T14:00:24;1.73;;;1.10;;
7493;SDS011;3788;49.902;8.590;2023-01-15T14:02:53;2.93;;;0.83;;
7493;SDS011;3788;49.902;8.590;2023-01-15T14:05:29;1.07;;;0.90;;
7493;SDS011;3788;49.902;8.590;2023-01-15T14:07:57;2.17;;;1.30;;
7493;SDS011;3788;49.902;8.590;2023-01-15T14:10:32;1.33;;;1.20;;
7493;SDS011;3788;49.902;8.590;2023-01-15T14:13:08;2.67;;;1.47;;
7493;SDS011;3788;49.902;8.590;2023-01-15T14:15:56;3.83;;;1.20;;
7493;SDS011;3788;49.902;8.590;2023-01-15T14:21:39;2.33;;;0.80;;
7493;SDS011;3788;49.902;8.590;2023-01-15T14:24:17;2.77;;;1.00;;
7493;SDS011;3788;49.902;8.590;2023-01-15T14:26:58;1.50;;;0.90;;
7493;SDS011;3788;49.902;8.590;2023-01-15T14:29:49;2.83;;;1.00;;
7493;SDS011;3788;49.902;8.590;2023-01-15T14:32:33;2.20;;;1.00;;
7493;SDS011;3788;49.902;8.590;2023-01-15T14:35:10;3.63;;;1.53;;
7493;SDS011;3788;49.902;8.590;2023-01-15T14:37:43;1.38;;;1.10;;
7493;SDS011;3788;49.902;8.590;2023-01-15T14:40:17;2.43;;;1.20;;
7493;SDS011;3788;49.902;8.590;2023-01-15T14:42:47;3.23;;;1.37;;
7493;SDS011;3788;49.902;8.590;2023-01-15T14:45:29;3.27;;;1.13;;
7493;SDS011;3788;49.902;8.590;2023-01-15T14:47:59;1.03;;;0.90;;
7493;SDS011;3788;49.902;8.590;2023-01-15T14:50:37;4.40;;;1.50;;
7493;SDS011;3788;49.902;8.590;2023-01-15T14:56:00;3.57;;;1.70;;
7493;SDS011;3788;49.902;8.590;2023-01-15T14:58:36;2.33;;;1.30;;
7493;SDS011;3788;49.902;8.590;2023-01-15T15:01:17;5.07;;;1.93;;
7493;SDS011;3788;49.902;8.590;2023-01-15T15:03:54;2.77;;;1.53;;
7493;SDS011;3788;49.902;8.590;2023-01-15T15:06:23;3.87;;;1.10;;
7493;SDS011;3788;49.902;8.590;2023-01-15T15:08:51;3.97;;;1.20;;
7493;SDS011;3788;49.902;8.590;2023-01-15T15:11:24;5.30;;;1.27;;
7493;SDS011;3788;49.902;8.590;2023-01-15T15:14:27;2.43;;;1.60;;
7493;SDS011;3788;49.902;8.590;2023-01-15T15:16:54;1.57;;;1.03;;
7493;SDS011;3788;49.902;8.590;2023-01-15T15:19:28;2.80;;;1.57;;
7493;SDS011;3788;49.902;8.590;2023-01-15T15:22:01;1.93;;;1.33;;
7493;SDS011;3788;49.902;8.590;2023-01-15T15:24:31;1.90;;;1.40;;
7493;SDS011;3788;49.902;8.590;2023-01-15T15:27:07;1.47;;;1.10;;
7493;SDS011;3788;49.902;8.590;2023-01-15T15:29:39;3.53;;;1.83;;
7493;SDS011;3788;49.902;8.590;2023-01-15T15:32:07;3.40;;;1.53;;
7493;SDS011;3788;49.902;8.590;2023-01-15T15:34:40;4.33;;;2.00;;
7493;SDS011;3788;49.902;8.590;2023-01-15T15:37:11;3.97;;;1.43;;
7493;SDS011;3788;49.902;8.590;2023-01-15T15:39:44;3.23;;;1.63;;
7493;SDS011;3788;49.902;8.590;2023-01-15T15:42:16;2.40;;;1.20;;
7493;SDS011;3788;49.902;8.590;2023-01-15T15:45:05;2.80;;;1.50;;
7493;SDS011;3788;49.902;8.590;2023-01-15T15:47:58;1.13;;;1.03;;
7493;SDS011;3788;49.902;8.590;2023-01-15T15:50:48;2.33;;;1.00;;
7493;SDS011;3788;49.902;8.590;2023-01-15T15:53:15;4.40;;;1.67;;